Time;durP1;ratioP1;P1;durP2;ratioP2;P2;SDS_P1;SDS_P2;PMS_P1;PMS_P2;Temp;Humidity;BMP_temperature;BMP_pressure;BME280_temperature;BME280_humidity;BME280_pressure;Samples;Min_cycle;Max_cycle;Signal;HPM_P1;HPM_P2
2021/06/10 00:02:07;;;;;;;5.60;4.57;;;;;;;;;;4879128;29;20581;-44
2021/06/10 00:04:32;;;;;;;7.18;4.50;;;;;;;;;;4879084;29;20109;-44
2021/06/10 00:06:57;;;;;;;6.00;4.47;;;;;;;;;;4879098;29;20032;-45
2021/06/10 00:09:23;;;;;;;5.30;4.57;;;;;;;;;;4878974;29;20025;-44
2021/06/10 00:11:49;;;;;;;5.93;4.45;;;;;;;;;;4878883;29;20029;-45
2021/06/10 00:14:14;;;;;;;6.85;4.47;;;;;;;;;;4878852;29;20028;-45
2021/06/10 00:16:40;;;;;;;5.03;4.40;;;;;;;;;;4878859;29;20032;-44
2021/06/10 00:19:05;;;;;;;5.55;3.85;;;;;;;;;;4879066;29;20039;-44
2021/06/10 00:21:31;;;;;;;7.28;4.50;;;;;;;;;;4878349;29;20052;-44
2021/06/10 00:23:56;;;;;;;8.98;5.38;;;;;;;;;;4878697;29;20037;-44
2021/06/10 00:26:21;;;;;;;8.40;5.43;;;;;;;;;;4878945;29;20096;-44
2021/06/10 00:28:47;;;;;;;5.93;4.32;;;;;;;;;;4878816;29;20061;-45
2021/06/10 00:31:12;;;;;;;5.40;4.57;;;;;;;;;;4878619;29;20025;-43
2021/06/10 00:33:38;;;;;;;5.57;3.83;;;;;;;;;;4878809;29;20033;-44
2021/06/10 00:36:03;;;;;;;9.55;4.85;;;;;;;;;;4878495;29;20524;-44
2021/06/10 00:38:29;;;;;;;11.18;4.68;;;;;;;;;;4878596;29;20049;-45
2021/06/10 00:40:54;;;;;;;4.82;3.85;;;;;;;;;;4878917;29;20494;-44
2021/06/10 00:43:19;;;;;;;5.60;4.38;;;;;;;;;;4878606;29;20123;-45
2021/06/10 00:45:45;;;;;;;5.78;4.03;;;;;;;;;;4878637;29;20025;-44
2021/06/10 00:48:10;;;;;;;5.72;4.47;;;;;;;;;;4878718;29;20037;-45
2021/06/10 00:50:38;;;;;;;8.45;4.95;;;;;;;;;;4878680;29;20017;-45
2021/06/10 00:53:04;;;;;;;6.65;4.80;;;;;;;;;;4878475;29;20052;-44
2021/06/10 00:55:29;;;;;;;6.38;4.30;;;;;;;;;;4878688;29;20017;-45
2021/06/10 00:57:54;;;;;;;5.78;4.47;;;;;;;;;;4877424;29;20037;-45
2021/06/10 01:00:20;;;;;;;6.22;4.53;;;;;;;;;;4878495;29;20365;-44
2021/06/10 01:02:46;;;;;;;4.63;3.85;;;;;;;;;;4878494;29;20052;-44
2021/06/10 01:05:12;;;;;;;8.75;4.63;;;;;;;;;;4878641;29;20029;-44
2021/06/10 01:07:44;;;;;;;7.07;4.70;;;;;;;;;;4877176;29;20029;-43
2021/06/10 01:10:23;;;;;;;5.28;4.40;;;;;;;;;;4878342;29;20112;-44
2021/06/10 01:12:48;;;;;;;4.53;4.13;;;;;;;;;;4878355;29;20044;-44
2021/06/10 01:15:14;;;;;;;5.82;4.15;;;;;;;;;;4878604;29;20027;-44
2021/06/10 01:17:43;;;;;;;5.38;4.55;;;;;;;;;;4878268;29;20033;-44
2021/06/10 01:20:10;;;;;;;12.23;4.68;;;;;;;;;;4877185;29;20056;-44
2021/06/10 01:22:35;;;;;;;9.45;4.90;;;;;;;;;;4878357;29;20093;-44
2021/06/10 01:25:14;;;;;;;6.00;4.53;;;;;;;;;;4878240;29;20021;-45
2021/06/10 01:27:41;;;;;;;7.70;4.63;;;;;;;;;;4878591;29;20040;-44
2021/06/10 01:30:11;;;;;;;7.40;4.07;;;;;;;;;;4878205;29;20108;-44
2021/06/10 01:32:40;;;;;;;5.13;4.30;;;;;;;;;;4878145;29;20041;-44
2021/06/10 01:35:06;;;;;;;5.15;3.95;;;;;;;;;;4881519;29;20025;-45
2021/06/10 01:37:33;;;;;;;4.60;4.18;;;;;;;;;;4881376;29;20060;-44
2021/06/10 01:39:59;;;;;;;7.80;4.63;;;;;;;;;;4881576;29;20107;-45
2021/06/10 01:42:24;;;;;;;5.75;4.78;;;;;;;;;;4881848;29;20421;-44
2021/06/10 01:44:50;;;;;;;5.20;4.50;;;;;;;;;;4881498;29;20111;-45
2021/06/10 01:47:19;;;;;;;6.35;4.22;;;;;;;;;;4881336;29;20036;-44
2021/06/10 01:49:45;;;;;;;5.28;4.78;;;;;;;;;;4881500;29;20029;-44
2021/06/10 01:52:10;;;;;;;7.72;4.43;;;;;;;;;;4881528;29;20041;-44
2021/06/10 01:54:37;;;;;;;5.93;4.10;;;;;;;;;;4881245;29;20099;-44
2021/06/10 01:57:03;;;;;;;8.25;4.40;;;;;;;;;;4881270;29;20092;-44
2021/06/10 01:59:29;;;;;;;8.10;4.72;;;;;;;;;;4880003;29;20032;-44
2021/06/10 02:01:57;;;;;;;5.88;4.40;;;;;;;;;;4881230;29;20438;-44
2021/06/10 02:04:23;;;;;;;6.07;4.35;;;;;;;;;;4881343;29;20081;-44
2021/06/10 02:06:50;;;;;;;7.55;4.70;;;;;;;;;;4881049;29;20025;-44
2021/06/10 02:09:16;;;;;;;7.45;4.60;;;;;;;;;;4881108;29;20025;-44
2021/06/10 02:11:42;;;;;;;6.05;4.70;;;;;;;;;;4881029;29;20097;-44
2021/06/10 02:14:08;;;;;;;11.75;4.50;;;;;;;;;;4880903;29;20029;-44
2021/06/10 02:16:37;;;;;;;8.68;4.47;;;;;;;;;;4880896;29;20527;-44
2021/06/10 02:19:03;;;;;;;5.53;4.60;;;;;;;;;;4880884;29;20104;-45
2021/06/10 02:21:28;;;;;;;5.28;4.13;;;;;;;;;;4880843;29;20112;-44
2021/06/10 02:23:53;;;;;;;6.18;4.30;;;;;;;;;;4881131;29;20017;-44
2021/06/10 02:26:19;;;;;;;5.30;4.20;;;;;;;;;;4880653;29;20040;-44
2021/06/10 02:28:44;;;;;;;5.35;4.32;;;;;;;;;;4880669;29;20032;-44
2021/06/10 02:31:10;;;;;;;5.57;4.32;;;;;;;;;;4880620;29;20032;-44
2021/06/10 02:33:37;;;;;;;7.72;4.53;;;;;;;;;;4880597;29;20039;-45
2021/06/10 02:36:04;;;;;;;5.28;4.78;;;;;;;;;;4880688;29;20395;-44
2021/06/10 02:38:30;;;;;;;5.03;3.63;;;;;;;;;;4880565;29;20535;-44
2021/06/10 02:40:58;;;;;;;4.38;3.90;;;;;;;;;;4879332;29;20608;-45
2021/06/10 02:43:24;;;;;;;6.65;3.85;;;;;;;;;;4880313;29;20031;-45
2021/06/10 02:45:49;;;;;;;6.35;4.70;;;;;;;;;;4879523;29;20104;-44
2021/06/10 02:48:16;;;;;;;7.07;4.53;;;;;;;;;;4880306;29;20539;-44
2021/06/10 02:50:42;;;;;;;5.40;3.95;;;;;;;;;;4879227;29;20235;-44
2021/06/10 02:53:14;;;;;;;6.05;4.60;;;;;;;;;;4880154;29;20116;-44
2021/06/10 02:55:40;;;;;;;9.93;4.45;;;;;;;;;;4880507;29;20049;-45
2021/06/10 02:58:06;;;;;;;6.22;3.45;;;;;;;;;;4880384;29;20037;-44
2021/06/10 03:00:32;;;;;;;8.35;4.90;;;;;;;;;;4880229;29;20373;-44
2021/06/10 03:02:59;;;;;;;7.63;3.67;;;;;;;;;;4880205;29;20483;-44
2021/06/10 03:05:25;;;;;;;8.57;3.65;;;;;;;;;;4880022;29;20125;-43
2021/06/10 03:07:52;;;;;;;5.50;4.53;;;;;;;;;;4880360;29;20093;-44
2021/06/10 03:10:20;;;;;;;6.28;3.90;;;;;;;;;;4880215;29;20036;-44
2021/06/10 03:12:45;;;;;;;8.90;4.60;;;;;;;;;;4878684;29;20084;-44
2021/06/10 03:15:11;;;;;;;4.70;3.55;;;;;;;;;;4880090;29;20464;-44
2021/06/10 03:17:37;;;;;;;5.80;3.60;;;;;;;;;;4879757;29;20044;-45
2021/06/10 03:20:07;;;;;;;5.97;3.50;;;;;;;;;;4880061;29;20407;-44
2021/06/10 03:22:33;;;;;;;4.00;3.22;;;;;;;;;;4878636;29;20122;-45
2021/06/10 03:25:00;;;;;;;8.73;4.00;;;;;;;;;;4879764;29;20108;-44
2021/06/10 03:27:25;;;;;;;3.72;3.17;;;;;;;;;;4879785;29;20136;-44
2021/06/10 03:29:50;;;;;;;5.97;4.05;;;;;;;;;;4879875;29;20033;-45
2021/06/10 03:32:16;;;;;;;3.83;3.28;;;;;;;;;;4879417;29;20124;-45
2021/06/10 03:34:42;;;;;;;5.78;4.07;;;;;;;;;;4879627;29;20088;-46
2021/06/10 03:37:08;;;;;;;5.95;3.83;;;;;;;;;;4879240;29;20051;-44
2021/06/10 03:39:34;;;;;;;4.00;2.97;;;;;;;;;;4878563;29;20029;-45
2021/06/10 03:42:00;;;;;;;6.32;3.60;;;;;;;;;;4879404;29;20025;-44
2021/06/10 03:44:27;;;;;;;8.77;3.53;;;;;;;;;;4879675;29;20085;-44
2021/06/10 03:46:53;;;;;;;4.45;3.63;;;;;;;;;;4879347;29;20081;-44
2021/06/10 03:49:19;;;;;;;3.60;3.30;;;;;;;;;;4879235;29;20449;-45
2021/06/10 03:51:49;;;;;;;3.85;3.45;;;;;;;;;;4879252;29;20021;-45
2021/06/10 03:54:14;;;;;;;7.05;3.40;;;;;;;;;;4879075;29;20535;-44
2021/06/10 03:56:39;;;;;;;4.22;3.22;;;;;;;;;;4879023;29;20105;-44
2021/06/10 03:59:05;;;;;;;4.60;3.53;;;;;;;;;;4879143;29;20047;-44
2021/06/10 04:01:30;;;;;;;4.82;3.20;;;;;;;;;;4879103;29;20021;-44
2021/06/10 04:03:55;;;;;;;4.40;3.78;;;;;;;;;;4879108;29;20092;-44
2021/06/10 04:06:28;;;;;;;6.25;3.55;;;;;;;;;;4879190;29;20058;-45
2021/06/10 04:08:53;;;;;;;5.65;3.53;;;;;;;;;;4879015;29;20052;-44
2021/06/10 04:11:18;;;;;;;6.28;3.10;;;;;;;;;;4877756;29;20604;-44
2021/06/10 04:13:44;;;;;;;4.47;3.35;;;;;;;;;;4877672;29;20143;-44
2021/06/10 04:16:09;;;;;;;3.42;3.13;;;;;;;;;;4879097;29;20487;-44
2021/06/10 04:18:35;;;;;;;4.07;3.05;;;;;;;;;;4878947;29;20064;-44
2021/06/10 04:21:00;;;;;;;3.97;2.90;;;;;;;;;;4879206;29;20025;-44
2021/06/10 04:23:25;;;;;;;9.30;3.08;;;;;;;;;;4878851;29;20069;-44
2021/06/10 04:25:51;;;;;;;3.17;2.55;;;;;;;;;;4877538;29;20074;-44
2021/06/10 04:28:16;;;;;;;5.78;3.45;;;;;;;;;;4878709;29;20365;-44
2021/06/10 04:30:42;;;;;;;3.88;3.30;;;;;;;;;;4878812;29;20037;-44
2021/06/10 04:33:07;;;;;;;6.32;3.20;;;;;;;;;;4877352;29;20041;-44
2021/06/10 04:35:32;;;;;;;4.20;2.95;;;;;;;;;;4878915;29;20032;-44
2021/06/10 04:37:58;;;;;;;3.47;3.17;;;;;;;;;;4878650;29;20109;-43
2021/06/10 04:40:23;;;;;;;3.58;3.28;;;;;;;;;;4877474;29;20033;-44
2021/06/10 04:42:48;;;;;;;3.85;3.05;;;;;;;;;;4878664;29;20039;-45
2021/06/10 04:45:14;;;;;;;3.72;2.78;;;;;;;;;;4878544;29;20429;-44
2021/06/10 04:47:39;;;;;;;5.78;3.88;;;;;;;;;;4878738;29;20491;-45
2021/06/10 04:50:05;;;;;;;3.40;2.80;;;;;;;;;;4878459;29;20029;-44
2021/06/10 04:52:31;;;;;;;3.70;3.33;;;;;;;;;;4878841;29;20045;-44
2021/06/10 04:54:56;;;;;;;3.70;3.08;;;;;;;;;;4878587;29;20081;-44
2021/06/10 04:57:21;;;;;;;4.00;3.00;;;;;;;;;;4878396;29;20045;-44
2021/06/10 04:59:47;;;;;;;6.72;3.22;;;;;;;;;;4878592;29;20058;-44
2021/06/10 05:02:12;;;;;;;3.47;3.05;;;;;;;;;;4878758;29;20044;-44
2021/06/10 05:04:38;;;;;;;3.20;2.90;;;;;;;;;;4878439;29;20133;-44
2021/06/10 05:07:03;;;;;;;4.28;3.53;;;;;;;;;;4878623;29;20034;-45
2021/06/10 05:09:29;;;;;;;4.28;3.25;;;;;;;;;;4881452;29;20027;-44
2021/06/10 05:11:54;;;;;;;4.65;2.97;;;;;;;;;;4865325;29;20492;-44
2021/06/10 05:14:20;;;;;;;4.95;3.25;;;;;;;;;;4882291;29;20021;-44
2021/06/10 05:16:49;;;;;;;3.40;3.10;;;;;;;;;;4882020;29;20392;-44
2021/06/10 05:19:14;;;;;;;4.80;2.72;;;;;;;;;;4882170;29;20037;-44
2021/06/10 05:21:40;;;;;;;8.05;3.15;;;;;;;;;;4881997;29;20507;-43
2021/06/10 05:24:08;;;;;;;3.72;2.78;;;;;;;;;;4882111;29;20104;-43
2021/06/10 05:26:33;;;;;;;2.78;2.40;;;;;;;;;;4881791;29;20096;-43
2021/06/10 05:28:59;;;;;;;4.22;3.25;;;;;;;;;;4881793;29;20473;-49
2021/06/10 05:31:24;;;;;;;5.25;2.80;;;;;;;;;;4881626;29;20037;-43
2021/06/10 05:33:50;;;;;;;3.60;3.03;;;;;;;;;;4881957;29;20025;-43
2021/06/10 05:36:16;;;;;;;3.65;3.15;;;;;;;;;;4881833;29;20433;-44
2021/06/10 05:38:41;;;;;;;3.75;3.00;;;;;;;;;;4881468;29;20088;-44
2021/06/10 05:41:07;;;;;;;3.60;3.30;;;;;;;;;;4880092;29;20040;-44
2021/06/10 05:43:34;;;;;;;3.60;2.88;;;;;;;;;;4881577;29;20025;-44
2021/06/10 05:46:00;;;;;;;4.70;3.20;;;;;;;;;;4881485;29;20064;-44
2021/06/10 05:48:25;;;;;;;6.53;3.72;;;;;;;;;;4879774;29;20480;-44
2021/06/10 05:50:51;;;;;;;3.95;2.88;;;;;;;;;;4881504;29;20033;-44
2021/06/10 05:53:16;;;;;;;2.60;2.33;;;;;;;;;;4879947;29;20068;-44
2021/06/10 05:55:42;;;;;;;4.32;3.17;;;;;;;;;;4881238;29;20488;-44
2021/06/10 05:58:08;;;;;;;4.30;3.33;;;;;;;;;;4881300;29;20029;-44
2021/06/10 06:00:34;;;;;;;4.30;3.03;;;;;;;;;;4881221;29;20029;-44
2021/06/10 06:03:03;;;;;;;4.22;3.00;;;;;;;;;;4881493;29;20025;-44
2021/06/10 06:05:28;;;;;;;4.63;3.25;;;;;;;;;;4881069;29;20396;-44
2021/06/10 06:07:54;;;;;;;6.07;3.00;;;;;;;;;;4881330;29;20025;-44
2021/06/10 06:10:20;;;;;;;4.13;3.00;;;;;;;;;;4881065;29;20404;-44
2021/06/10 06:12:47;;;;;;;4.07;3.45;;;;;;;;;;4879789;29;20033;-44
2021/06/10 06:15:13;;;;;;;3.42;2.83;;;;;;;;;;4881121;29;20043;-44
2021/06/10 06:17:38;;;;;;;3.42;2.75;;;;;;;;;;4881156;29;20025;-44
2021/06/10 06:20:04;;;;;;;3.17;2.70;;;;;;;;;;4881154;29;20111;-44
2021/06/10 06:22:29;;;;;;;6.97;3.20;;;;;;;;;;4879695;29;20490;-44
2021/06/10 06:24:55;;;;;;;4.88;2.97;;;;;;;;;;4879586;29;20040;-46
2021/06/10 06:27:21;;;;;;;2.97;2.67;;;;;;;;;;4879686;29;20548;-44
2021/06/10 06:29:46;;;;;;;3.13;2.45;;;;;;;;;;4880961;29;20033;-44
2021/06/10 06:32:11;;;;;;;2.90;2.50;;;;;;;;;;4880645;29;20503;-45
2021/06/10 06:34:37;;;;;;;5.35;3.47;;;;;;;;;;4881032;29;20061;-45
2021/06/10 06:37:02;;;;;;;5.03;2.70;;;;;;;;;;4880532;29;20040;-46
2021/06/10 06:39:28;;;;;;;3.78;3.20;;;;;;;;;;4880719;29;20112;-44
2021/06/10 06:41:53;;;;;;;3.25;2.95;;;;;;;;;;4880863;29;20065;-44
2021/06/10 06:44:19;;;;;;;3.38;2.60;;;;;;;;;;4880715;29;20029;-44
2021/06/10 06:46:44;;;;;;;6.13;3.22;;;;;;;;;;4880458;29;20017;-44
2021/06/10 06:49:09;;;;;;;3.42;2.72;;;;;;;;;;4880376;29;20045;-44
2021/06/10 06:51:35;;;;;;;4.82;3.25;;;;;;;;;;4880267;29;20013;-44
2021/06/10 06:54:00;;;;;;;7.40;3.20;;;;;;;;;;4880390;29;20544;-44
2021/06/10 06:56:26;;;;;;;3.58;2.85;;;;;;;;;;4880229;29;20494;-44
2021/06/10 06:58:51;;;;;;;4.35;3.13;;;;;;;;;;4879031;29;20651;-45
2021/06/10 07:01:17;;;;;;;4.43;3.45;;;;;;;;;;4880409;29;20017;-44
2021/06/10 07:03:42;;;;;;;6.55;2.80;;;;;;;;;;4880201;29;20051;-44
2021/06/10 07:06:08;;;;;;;10.32;4.40;;;;;;;;;;4879887;29;20100;-44
2021/06/10 07:08:33;;;;;;;4.38;3.08;;;;;;;;;;4880085;29;20033;-44
2021/06/10 07:10:59;;;;;;;4.18;3.22;;;;;;;;;;4880066;29;20097;-44
2021/06/10 07:13:25;;;;;;;3.60;3.25;;;;;;;;;;4880110;29;20135;-44
2021/06/10 07:15:51;;;;;;;3.55;2.65;;;;;;;;;;4879925;29;20667;-46
2021/06/10 07:18:16;;;;;;;3.15;2.70;;;;;;;;;;4880054;29;20037;-44
2021/06/10 07:20:41;;;;;;;6.72;2.83;;;;;;;;;;4880049;29;20424;-44
2021/06/10 07:23:07;;;;;;;5.18;2.90;;;;;;;;;;4880065;29;20544;-43
2021/06/10 07:25:32;;;;;;;4.57;3.15;;;;;;;;;;4879775;29;20404;-44
2021/06/10 07:27:58;;;;;;;3.40;2.58;;;;;;;;;;4879701;29;20036;-44
2021/06/10 07:30:23;;;;;;;4.00;2.65;;;;;;;;;;4879651;29;20025;-44
2021/06/10 07:32:49;;;;;;;6.28;3.15;;;;;;;;;;4879097;29;20096;-44
2021/06/10 07:35:14;;;;;;;3.47;2.80;;;;;;;;;;4879440;29;20038;-44
2021/06/10 07:37:40;;;;;;;2.97;2.67;;;;;;;;;;4879434;29;20052;-44
2021/06/10 07:40:06;;;;;;;3.22;2.75;;;;;;;;;;4879728;29;20029;-44
2021/06/10 07:42:31;;;;;;;3.30;3.00;;;;;;;;;;4879700;29;20025;-44
2021/06/10 07:44:57;;;;;;;3.42;2.70;;;;;;;;;;4879475;29;20376;-44
2021/06/10 07:47:23;;;;;;;3.42;2.92;;;;;;;;;;4879617;29;20104;-44
2021/06/10 07:49:49;;;;;;;4.50;3.17;;;;;;;;;;4879601;29;20536;-44
2021/06/10 07:52:14;;;;;;;3.65;3.20;;;;;;;;;;4879094;29;20396;-44
2021/06/10 07:54:40;;;;;;;6.15;2.70;;;;;;;;;;4879470;29;20025;-45
2021/06/10 07:57:05;;;;;;;4.28;3.53;;;;;;;;;;4879217;29;20392;-44
2021/06/10 07:59:32;;;;;;;3.40;3.03;;;;;;;;;;4879256;29;20477;-44
2021/06/10 08:01:58;;;;;;;5.60;2.85;;;;;;;;;;4879146;29;20487;-44
2021/06/10 08:04:23;;;;;;;5.78;3.72;;;;;;;;;;4879030;29;20029;-44
2021/06/10 08:06:49;;;;;;;4.03;3.00;;;;;;;;;;4879076;29;20068;-44
2021/06/10 08:09:14;;;;;;;4.40;3.38;;;;;;;;;;4877744;29;20239;-44
2021/06/10 08:11:40;;;;;;;4.15;3.45;;;;;;;;;;4878996;29;20033;-44
2021/06/10 08:14:06;;;;;;;4.32;3.38;;;;;;;;;;4878935;29;20107;-43
2021/06/10 08:16:31;;;;;;;3.53;3.22;;;;;;;;;;4878918;29;20121;-45
2021/06/10 08:18:57;;;;;;;3.72;3.08;;;;;;;;;;4879063;29;20047;-44
2021/06/10 08:21:22;;;;;;;10.65;3.13;;;;;;;;;;4878849;29;20116;-44
2021/06/10 08:23:47;;;;;;;3.42;3.00;;;;;;;;;;4878841;29;20028;-44
2021/06/10 08:26:13;;;;;;;3.53;3.20;;;;;;;;;;4879034;29;20029;-44
2021/06/10 08:28:38;;;;;;;5.72;3.42;;;;;;;;;;4879132;29;20528;-44
2021/06/10 08:31:04;;;;;;;3.15;2.85;;;;;;;;;;4878731;29;20120;-44
2021/06/10 08:33:30;;;;;;;8.52;3.40;;;;;;;;;;4878957;29;20037;-43
2021/06/10 08:35:56;;;;;;;3.15;2.72;;;;;;;;;;4878997;29;20064;-44
2021/06/10 08:38:22;;;;;;;4.10;3.65;;;;;;;;;;4878520;29;20056;-44
2021/06/10 08:40:47;;;;;;;3.58;3.15;;;;;;;;;;4879069;29;20138;-44
2021/06/10 08:43:13;;;;;;;4.70;3.35;;;;;;;;;;4879369;29;20353;-44
2021/06/10 08:45:42;;;;;;;5.63;2.63;;;;;;;;;;4881366;29;20047;-44
2021/06/10 08:48:07;;;;;;;3.88;3.00;;;;;;;;;;4882420;29;20468;-44
2021/06/10 08:50:33;;;;;;;3.83;3.40;;;;;;;;;;4882836;29;20040;-44
2021/06/10 08:53:00;;;;;;;4.70;3.60;;;;;;;;;;4882632;29;20492;-44
2021/06/10 08:55:26;;;;;;;3.60;3.25;;;;;;;;;;4881096;29;20067;-44
2021/06/10 08:57:52;;;;;;;4.10;3.53;;;;;;;;;;4882751;29;20052;-44
2021/06/10 09:00:21;;;;;;;6.55;2.67;;;;;;;;;;4882505;29;20116;-44
2021/06/10 09:02:50;;;;;;;5.00;3.28;;;;;;;;;;4882333;29;20040;-44
2021/06/10 09:05:17;;;;;;;5.30;3.30;;;;;;;;;;4880958;29;20041;-44
2021/06/10 09:07:46;;;;;;;5.18;2.92;;;;;;;;;;4882371;29;20369;-44
2021/06/10 09:10:12;;;;;;;2.65;2.45;;;;;;;;;;4882479;29;20392;-44
2021/06/10 09:12:47;;;;;;;5.88;3.47;;;;;;;;;;4882018;29;20032;-44
2021/06/10 09:15:13;;;;;;;5.13;3.38;;;;;;;;;;4882188;29;20393;-44
2021/06/10 09:17:40;;;;;;;3.63;2.85;;;;;;;;;;4882030;29;20109;-44
2021/06/10 09:20:27;;;;;;;3.58;3.08;;;;;;;;;;4881962;29;20116;-44
2021/06/10 09:23:11;;;;;;;3.83;2.95;;;;;;;;;;4881790;29;20116;-44
2021/06/10 09:25:36;;;;;;;4.55;3.13;;;;;;;;;;4881942;29;20029;-45
2021/06/10 09:28:03;;;;;;;5.15;3.17;;;;;;;;;;4881863;29;20035;-43
2021/06/10 09:30:31;;;;;;;5.63;3.40;;;;;;;;;;4881757;29;20033;-45
2021/06/10 09:32:57;;;;;;;6.72;3.45;;;;;;;;;;4881716;29;20089;-44
2021/06/10 09:35:26;;;;;;;3.45;3.03;;;;;;;;;;4881601;29;20417;-44
2021/06/10 09:37:56;;;;;;;3.70;2.83;;;;;;;;;;4881482;29;20056;-44
2021/06/10 09:40:21;;;;;;;5.35;3.45;;;;;;;;;;4881642;29;20036;-44
2021/06/10 09:42:48;;;;;;;3.08;2.78;;;;;;;;;;4881536;29;20025;-44
2021/06/10 09:45:15;;;;;;;4.55;3.20;;;;;;;;;;4881664;29;20094;-44
2021/06/10 09:47:45;;;;;;;4.70;3.00;;;;;;;;;;4881556;29;20464;-44
2021/06/10 09:50:11;;;;;;;4.22;2.90;;;;;;;;;;4881374;29;20065;-44
2021/06/10 09:52:45;;;;;;;5.00;3.60;;;;;;;;;;4881658;29;20049;-44
2021/06/10 09:55:24;;;;;;;10.40;3.55;;;;;;;;;;4880822;29;20030;-44
2021/06/10 09:57:50;;;;;;;5.90;2.80;;;;;;;;;;4880185;29;20029;-44
2021/06/10 10:00:15;;;;;;;3.10;2.80;;;;;;;;;;4881257;29;20032;-44
2021/06/10 10:02:47;;;;;;;6.90;3.53;;;;;;;;;;4880158;29;20033;-44
2021/06/10 10:05:12;;;;;;;4.03;3.58;;;;;;;;;;4881141;29;20045;-44
2021/06/10 10:07:38;;;;;;;4.45;2.75;;;;;;;;;;4880006;29;20032;-44
2021/06/10 10:10:05;;;;;;;3.60;2.72;;;;;;;;;;4881112;29;20033;-44
2021/06/10 10:12:31;;;;;;;7.00;3.40;;;;;;;;;;4881058;29;20191;-44
2021/06/10 10:14:57;;;;;;;3.30;2.78;;;;;;;;;;4881118;29;20141;-45
2021/06/10 10:17:24;;;;;;;3.63;3.33;;;;;;;;;;4880924;29;20104;-45
2021/06/10 10:19:49;;;;;;;6.75;2.95;;;;;;;;;;4881157;29;20033;-45
2021/06/10 10:22:15;;;;;;;4.70;3.35;;;;;;;;;;4880877;29;20124;-44
2021/06/10 10:24:42;;;;;;;3.47;2.78;;;;;;;;;;4880827;29;20061;-44
2021/06/10 10:27:13;;;;;;;4.30;3.22;;;;;;;;;;4879530;29;20028;-45
2021/06/10 10:29:40;;;;;;;5.78;2.88;;;;;;;;;;4880900;29;20056;-45
2021/06/10 10:32:09;;;;;;;3.83;3.08;;;;;;;;;;4880902;29;20516;-45
2021/06/10 10:34:35;;;;;;;4.63;3.15;;;;;;;;;;4880729;29;20092;-45
2021/06/10 10:37:19;;;;;;;3.58;3.00;;;;;;;;;;4880487;29;20552;-44
2021/06/10 10:39:44;;;;;;;4.20;3.45;;;;;;;;;;4880853;29;20051;-45
2021/06/10 10:42:10;;;;;;;7.10;3.10;;;;;;;;;;4880757;29;20536;-45
2021/06/10 10:44:35;;;;;;;2.58;2.38;;;;;;;;;;4880535;29;20381;-45
2021/06/10 10:47:01;;;;;;;3.70;2.80;;;;;;;;;;4880462;29;20017;-45
2021/06/10 10:49:29;;;;;;;3.30;2.83;;;;;;;;;;4880432;29;20037;-45
2021/06/10 10:52:14;;;;;;;4.57;3.13;;;;;;;;;;4880388;29;20017;-45
2021/06/10 10:54:41;;;;;;;3.47;2.90;;;;;;;;;;4880196;29;20449;-45
2021/06/10 10:57:26;;;;;;;4.35;2.85;;;;;;;;;;4879080;29;20032;-45
2021/06/10 10:59:52;;;;;;;6.28;2.58;;;;;;;;;;4880189;29;20029;-45
2021/06/10 11:02:18;;;;;;;3.97;3.30;;;;;;;;;;4880190;29;20096;-45
2021/06/10 11:04:51;;;;;;;3.67;3.00;;;;;;;;;;4880146;29;20037;-44
2021/06/10 11:07:35;;;;;;;4.35;2.38;;;;;;;;;;4879480;29;20033;-44
2021/06/10 11:10:04;;;;;;;3.03;2.65;;;;;;;;;;4878906;29;20043;-44
2021/06/10 11:12:56;;;;;;;4.40;3.05;;;;;;;;;;4879921;29;20024;-45
2021/06/10 11:15:31;;;;;;;3.17;2.88;;;;;;;;;;4880407;29;20044;-44
2021/06/10 11:17:58;;;;;;;3.05;2.42;;;;;;;;;;4879892;29;20035;-44
2021/06/10 11:20:36;;;;;;;4.32;3.30;;;;;;;;;;4879780;29;20021;-45
2021/06/10 11:23:25;;;;;;;3.60;2.50;;;;;;;;;;4879739;29;20080;-44
2021/06/10 11:25:52;;;;;;;3.40;3.10;;;;;;;;;;4879743;29;20117;-45
2021/06/10 11:28:22;;;;;;;9.32;3.25;;;;;;;;;;4879642;29;20037;-45
2021/06/10 11:30:53;;;;;;;4.38;2.83;;;;;;;;;;4879715;29;20021;-44
2021/06/10 11:33:19;;;;;;;4.30;3.22;;;;;;;;;;4879587;29;20044;-44
2021/06/10 11:35:44;;;;;;;3.35;2.83;;;;;;;;;;4879816;29;20531;-45
2021/06/10 11:38:36;;;;;;;2.92;1.25;;;;;;;;;;4879350;29;20526;-44
2021/06/10 11:41:03;;;;;;;5.35;2.92;;;;;;;;;;4879778;29;20124;-44
2021/06/10 11:43:30;;;;;;;3.60;3.08;;;;;;;;;;4879611;29;20445;-45
2021/06/10 11:46:11;;;;;;;4.65;3.15;;;;;;;;;;4879413;29;20080;-45
2021/06/10 11:48:44;;;;;;;3.08;2.72;;;;;;;;;;4879651;29;20044;-45
2021/06/10 11:51:26;;;;;;;3.65;2.90;;;;;;;;;;4879307;29;20025;-44
2021/06/10 11:53:53;;;;;;;3.30;2.40;;;;;;;;;;4879499;29;20048;-45
2021/06/10 11:56:25;;;;;;;3.47;2.72;;;;;;;;;;4879111;29;20029;-44
2021/06/10 11:58:51;;;;;;;3.63;2.90;;;;;;;;;;4879275;29;20048;-45
2021/06/10 12:01:16;;;;;;;8.80;2.72;;;;;;;;;;4879120;29;20025;-44
2021/06/10 12:03:44;;;;;;;4.35;3.03;;;;;;;;;;4879192;29;20044;-44
2021/06/10 12:06:11;;;;;;;4.68;3.13;;;;;;;;;;4879298;29;20028;-45
2021/06/10 12:08:37;;;;;;;4.32;3.25;;;;;;;;;;4879076;29;20084;-44
2021/06/10 12:11:06;;;;;;;4.18;3.00;;;;;;;;;;4879326;29;20119;-45
2021/06/10 12:13:33;;;;;;;4.93;2.95;;;;;;;;;;4879111;29;20041;-45
2021/06/10 12:16:03;;;;;;;8.10;3.25;;;;;;;;;;4879250;29;20018;-45
2021/06/10 12:18:29;;;;;;;7.18;3.22;;;;;;;;;;4879056;29;20060;-46
2021/06/10 12:20:57;;;;;;;9.32;3.00;;;;;;;;;;4879219;29;20029;-45
2021/06/10 12:23:23;;;;;;;3.33;3.00;;;;;;;;;;4879164;29;20638;-45
2021/06/10 12:25:48;;;;;;;7.03;4.10;;;;;;;;;;4878815;29;20087;-45
2021/06/10 12:28:24;;;;;;;8.43;2.97;;;;;;;;;;4878814;29;20036;-45
2021/06/10 12:30:57;;;;;;;5.05;2.85;;;;;;;;;;4879151;29;20047;-45
2021/06/10 12:33:23;;;;;;;3.60;2.95;;;;;;;;;;4878593;29;20045;-45
2021/06/10 12:35:49;;;;;;;5.15;3.33;;;;;;;;;;4878760;29;20104;-45
2021/06/10 12:38:17;;;;;;;4.15;2.78;;;;;;;;;;4878578;29;20049;-46
2021/06/10 12:40:46;;;;;;;3.10;2.78;;;;;;;;;;4878729;29;20488;-44
2021/06/10 12:43:12;;;;;;;3.38;2.90;;;;;;;;;;4878631;29;20073;-45
2021/06/10 12:45:38;;;;;;;4.32;3.67;;;;;;;;;;4878920;29;20124;-45
2021/06/10 12:48:21;;;;;;;4.32;3.60;;;;;;;;;;4878658;29;20536;-44
2021/06/10 12:50:46;;;;;;;6.03;2.80;;;;;;;;;;4878976;29;20033;-45
2021/06/10 12:53:16;;;;;;;3.20;2.90;;;;;;;;;;4878705;29;20095;-45
2021/06/10 12:55:41;;;;;;;3.65;2.97;;;;;;;;;;4878743;29;20039;-45
2021/06/10 12:58:08;;;;;;;3.20;2.67;;;;;;;;;;4878668;29;20055;-44
2021/06/10 13:00:35;;;;;;;4.93;2.85;;;;;;;;;;4878580;29;20029;-44
2021/06/10 13:03:04;;;;;;;4.22;3.10;;;;;;;;;;4877317;29;20056;-45
2021/06/10 13:05:29;;;;;;;5.40;3.08;;;;;;;;;;4877500;29;20376;-45
2021/06/10 13:07:56;;;;;;;3.40;2.97;;;;;;;;;;4878457;29;20021;-45
2021/06/10 13:10:35;;;;;;;3.35;2.85;;;;;;;;;;4878444;29;20041;-46
2021/06/10 13:13:01;;;;;;;3.63;2.75;;;;;;;;;;4878431;29;20045;-45
2021/06/10 13:15:28;;;;;;;3.50;2.78;;;;;;;;;;4878522;29;20024;-45
2021/06/10 13:17:56;;;;;;;3.22;2.88;;;;;;;;;;4878675;29;20037;-45
2021/06/10 13:20:40;;;;;;;3.03;2.60;;;;;;;;;;4878608;29;20138;-44
2021/06/10 13:23:05;;;;;;;3.53;3.17;;;;;;;;;;4878650;29;20036;-45
2021/06/10 13:25:31;;;;;;;5.93;2.95;;;;;;;;;;4878250;29;20377;-44
2021/06/10 13:28:09;;;;;;;4.05;2.65;;;;;;;;;;4878383;29;20033;-45
2021/06/10 13:30:34;;;;;;;4.55;2.75;;;;;;;;;;4880764;29;20029;-44
2021/06/10 13:33:00;;;;;;;4.82;3.10;;;;;;;;;;4881986;29;20498;-45
2021/06/10 13:35:26;;;;;;;8.13;2.85;;;;;;;;;;4880344;29;20055;-45
2021/06/10 13:37:51;;;;;;;5.93;3.33;;;;;;;;;;4881541;29;20053;-45
2021/06/10 13:40:17;;;;;;;4.35;2.78;;;;;;;;;;4881244;29;20032;-45
2021/06/10 13:42:49;;;;;;;3.92;3.20;;;;;;;;;;4880213;29;20037;-45
2021/06/10 13:45:15;;;;;;;2.80;2.50;;;;;;;;;;4881469;29;20033;-45
2021/06/10 13:47:40;;;;;;;3.22;2.88;;;;;;;;;;4881967;29;20588;-49
2021/06/10 13:50:06;;;;;;;3.55;2.78;;;;;;;;;;4881612;29;20488;-45
2021/06/10 13:52:32;;;;;;;4.45;3.20;;;;;;;;;;4880906;29;20484;-45
2021/06/10 13:54:58;;;;;;;5.30;3.20;;;;;;;;;;4879789;29;20044;-45
2021/06/10 13:57:24;;;;;;;4.90;3.35;;;;;;;;;;4880088;29;20029;-45
2021/06/10 13:59:51;;;;;;;4.07;3.60;;;;;;;;;;4879547;29;20429;-45
2021/06/10 14:02:16;;;;;;;6.72;4.57;;;;;;;;;;4881309;29;20045;-45
2021/06/10 14:04:45;;;;;;;5.47;4.25;;;;;;;;;;4881359;29;20112;-45
2021/06/10 14:07:10;;;;;;;11.02;3.72;;;;;;;;;;4879492;29;20017;-45
2021/06/10 14:09:36;;;;;;;7.72;4.22;;;;;;;;;;4879892;29;20043;-45
2021/06/10 14:12:01;;;;;;;4.45;3.70;;;;;;;;;;4881147;29;20017;-45
2021/06/10 14:14:27;;;;;;;6.32;3.00;;;;;;;;;;4881032;29;20039;-45
2021/06/10 14:16:52;;;;;;;4.65;4.03;;;;;;;;;;4881072;29;20616;-45
2021/06/10 14:19:21;;;;;;;3.47;3.17;;;;;;;;;;4881103;29;20039;-45
2021/06/10 14:21:46;;;;;;;5.72;3.53;;;;;;;;;;4880075;29;20024;-45
2021/06/10 14:24:12;;;;;;;6.45;3.90;;;;;;;;;;4880925;29;20100;-45
2021/06/10 14:26:38;;;;;;;6.70;3.85;;;;;;;;;;4880880;29;20109;-45
2021/06/10 14:29:25;;;;;;;4.30;3.50;;;;;;;;;;4880861;29;20033;-45
2021/06/10 14:34:14;;;;;;;3.95;3.08;;;;;;;;;;4880866;29;20036;-45
2021/06/10 14:36:39;;;;;;;3.13;2.80;;;;;;;;;;4880566;29;20488;-45
2021/06/10 14:39:05;;;;;;;4.93;2.83;;;;;;;;;;4880700;29;20112;-45
2021/06/10 14:41:31;;;;;;;5.10;2.88;;;;;;;;;;4879285;29;20166;-45
2021/06/10 14:43:56;;;;;;;3.22;2.25;;;;;;;;;;4880833;29;20025;-45
2021/06/10 14:46:22;;;;;;;3.10;2.45;;;;;;;;;;4880698;29;20033;-45